createdAt,value
2019-04-01T00:00:52.158Z,31.87
2019-04-01T00:03:22.207Z,29.33
2019-04-01T00:05:52.247Z,29.97
2019-04-01T00:08:22.236Z,31.40
2019-04-01T00:10:52.305Z,32.50
2019-04-01T00:13:22.387Z,32.10
2019-04-01T00:15:52.443Z,34.37
2019-04-01T00:18:22.499Z,31.27
2019-04-01T00:20:52.505Z,33.10
2019-04-01T00:23:22.674Z,33.37
2019-04-01T00:25:52.727Z,34.07
2019-04-01T00:28:22.764Z,33.33
2019-04-01T00:30:52.827Z,35.10
2019-04-01T00:33:22.841Z,34.53
2019-04-01T00:35:52.859Z,33.50
2019-04-01T00:38:22.889Z,34.73
2019-04-01T00:40:52.885Z,35.53
2019-04-01T00:43:44.916Z,35.47
2019-04-01T00:46:17.081Z,35.47
2019-04-01T00:48:47.153Z,35.80
2019-04-01T00:51:17.245Z,34.25
2019-04-01T00:53:47.599Z,36.30
2019-04-01T00:56:17.602Z,35.40
2019-04-01T00:58:47.721Z,36.37
2019-04-01T01:01:17.744Z,34.80
2019-04-01T01:03:47.771Z,36.60
2019-04-01T01:06:17.798Z,35.27
2019-04-01T01:08:47.842Z,38.33
2019-04-01T01:11:17.914Z,35.93
2019-04-01T01:13:48.012Z,35.23
2019-04-01T01:16:18.072Z,36.43
2019-04-01T01:18:48.251Z,35.40
2019-04-01T01:21:18.290Z,36.17
2019-04-01T01:23:48.452Z,34.70
2019-04-01T01:26:18.496Z,36.23
2019-04-01T01:28:48.592Z,34.00
2019-04-01T01:31:18.669Z,34.07
2019-04-01T01:33:48.705Z,35.20
2019-04-01T01:36:18.826Z,35.37
2019-04-01T01:38:48.857Z,33.47
2019-04-01T01:41:18.874Z,33.77
2019-04-01T01:43:48.874Z,36.10
2019-04-01T01:46:18.866Z,34.33
2019-04-01T01:48:48.917Z,35.20
2019-04-01T01:51:19.012Z,34.77
2019-04-01T01:53:49.015Z,33.80
2019-04-01T01:56:19.109Z,34.87
2019-04-01T01:58:49.131Z,35.07
2019-04-01T02:01:19.207Z,33.93
2019-04-01T02:03:49.248Z,35.90
2019-04-01T02:06:19.282Z,36.47
2019-04-01T02:08:49.294Z,34.50
2019-04-01T02:11:19.328Z,36.60
2019-04-01T02:13:49.416Z,36.13
2019-04-01T02:16:19.538Z,36.10
2019-04-01T02:18:49.558Z,34.85
2019-04-01T02:21:19.621Z,34.85
2019-04-01T02:23:49.770Z,36.05
2019-04-01T02:26:19.831Z,33.50
2019-04-01T02:28:49.874Z,31.43
2019-04-01T02:31:19.945Z,36.07
2019-04-01T02:33:50.036Z,35.30
2019-04-01T02:36:20.056Z,34.93
2019-04-01T02:38:50.107Z,35.43
2019-04-01T02:41:20.106Z,35.30
2019-04-01T02:43:50.219Z,35.27
2019-04-01T02:46:20.273Z,34.33
2019-04-01T02:48:50.383Z,35.55
2019-04-01T02:51:20.459Z,35.87
2019-04-01T02:53:50.510Z,34.93
2019-04-01T02:56:20.597Z,35.93
2019-04-01T02:58:50.675Z,36.23
2019-04-01T03:01:20.681Z,36.23
2019-04-01T03:03:50.739Z,37.30
2019-04-01T03:06:20.786Z,34.97
2019-04-01T03:08:50.826Z,33.67
2019-04-01T03:11:20.845Z,37.20
2019-04-01T03:13:50.902Z,35.57
2019-04-01T03:16:20.970Z,36.80
2019-04-01T03:18:51.046Z,35.10
2019-04-01T03:21:21.131Z,32.80
2019-04-01T03:23:51.184Z,35.30
2019-04-01T03:26:21.220Z,35.65
2019-04-01T03:28:51.227Z,36.40
2019-04-01T03:31:21.243Z,35.77
2019-04-01T03:33:51.335Z,38.10
2019-04-01T03:36:21.439Z,33.40
2019-04-01T03:38:51.473Z,35.20
2019-04-01T03:41:21.577Z,34.67
2019-04-01T03:43:51.690Z,35.30
2019-04-01T03:46:21.757Z,35.20
2019-04-01T03:48:51.795Z,37.20
2019-04-01T03:51:21.872Z,36.23
2019-04-01T03:53:51.914Z,33.53
2019-04-01T03:56:21.925Z,35.17
2019-04-01T03:58:52.004Z,33.90
2019-04-01T04:01:22.039Z,34.50
2019-04-01T04:03:52.115Z,37.07
2019-04-01T04:06:22.127Z,36.43
2019-04-01T04:08:52.232Z,37.83
2019-04-01T04:11:22.253Z,34.67
2019-04-01T04:13:52.353Z,34.47
2019-04-01T04:16:22.416Z,37.10
2019-04-01T04:18:52.661Z,36.17
2019-04-01T04:21:24.153Z,35.50
2019-04-01T04:23:54.553Z,36.07
2019-04-01T04:26:24.624Z,34.97
2019-04-01T04:28:54.688Z,35.80
2019-04-01T04:31:24.732Z,35.85
2019-04-01T04:33:54.925Z,36.87
2019-04-01T04:36:24.992Z,35.23
2019-04-01T04:38:55.101Z,36.93
2019-04-01T04:41:25.133Z,35.20
2019-04-01T04:43:55.192Z,36.03
2019-04-01T04:46:25.223Z,38.07
2019-04-01T04:48:55.239Z,37.23
2019-04-01T04:51:25.262Z,38.23
2019-04-01T04:53:55.267Z,37.40
2019-04-01T04:56:25.311Z,35.33
2019-04-01T04:58:57.550Z,37.33
2019-04-01T05:01:27.981Z,38.42
2019-04-01T05:03:58.020Z,36.53
2019-04-01T05:06:28.082Z,39.70
2019-04-01T05:08:58.104Z,36.60
2019-04-01T05:11:31.068Z,36.33
2019-04-01T05:14:01.970Z,38.25
2019-04-01T05:16:32.288Z,37.33
2019-04-01T05:19:02.778Z,37.00
2019-04-01T05:21:33.478Z,38.33
2019-04-01T05:24:03.517Z,36.50
2019-04-01T05:26:34.843Z,36.23
2019-04-01T05:29:05.488Z,36.42
2019-04-01T05:31:35.730Z,35.50
2019-04-01T05:34:05.778Z,34.80
2019-04-01T05:36:35.797Z,36.53
2019-04-01T05:39:07.290Z,36.85
2019-04-01T05:41:37.494Z,36.20
2019-04-01T05:44:07.544Z,37.63
2019-04-01T05:46:37.581Z,37.20
2019-04-01T05:49:07.648Z,34.60
2019-04-01T05:51:37.662Z,37.17
2019-04-01T05:54:07.844Z,36.85
2019-04-01T05:56:37.862Z,35.93
2019-04-01T05:59:07.915Z,37.67
2019-04-01T06:01:43.908Z,34.30
2019-04-01T06:04:13.992Z,35.20
2019-04-01T06:06:44.140Z,34.27
2019-04-01T06:09:14.160Z,36.97
2019-04-01T06:11:44.198Z,36.30
2019-04-01T06:14:14.320Z,35.83
2019-04-01T06:16:44.365Z,36.87
2019-04-01T06:19:15.104Z,36.23
2019-04-01T06:21:45.315Z,34.98
2019-04-01T06:24:15.321Z,35.23
2019-04-01T06:26:45.460Z,34.85
2019-04-01T06:29:15.509Z,34.37
2019-04-01T06:31:45.541Z,35.40
2019-04-01T06:34:15.583Z,35.00
2019-04-01T06:36:45.610Z,35.40
2019-04-01T06:39:15.704Z,32.77
2019-04-01T06:41:45.755Z,34.33
2019-04-01T06:44:15.805Z,32.50
2019-04-01T06:46:45.904Z,32.80
2019-04-01T06:49:15.945Z,34.48
2019-04-01T06:51:45.957Z,35.00
2019-04-01T06:54:16.117Z,35.07
2019-04-01T06:56:46.202Z,33.87
2019-04-01T06:59:16.215Z,32.60
2019-04-01T07:01:46.231Z,34.80
2019-04-01T07:04:17.111Z,31.37
2019-04-01T07:06:47.191Z,32.17
2019-04-01T07:09:17.228Z,33.63
2019-04-01T07:11:47.222Z,33.10
2019-04-01T07:14:17.218Z,32.20
2019-04-01T07:16:47.273Z,31.47
2019-04-01T07:19:17.424Z,32.23
2019-04-01T07:21:47.626Z,33.30
2019-04-01T07:24:17.640Z,33.33
2019-04-01T07:26:47.669Z,32.17
2019-04-01T07:29:17.771Z,32.63
2019-04-01T07:31:47.807Z,34.07
2019-04-01T07:34:17.808Z,33.47
2019-04-01T07:36:47.926Z,33.05
2019-04-01T07:39:18.109Z,30.40
2019-04-01T07:41:48.161Z,31.83
2019-04-01T07:44:18.189Z,31.70
2019-04-01T07:46:48.227Z,31.47
2019-04-01T07:49:18.272Z,32.23
2019-04-01T07:51:48.505Z,29.97
2019-04-01T07:54:19.593Z,31.40
2019-04-01T07:56:49.672Z,30.30
2019-04-01T07:59:19.688Z,30.02
2019-04-01T08:01:52.682Z,29.12
2019-04-01T08:04:21.460Z,30.07
2019-04-01T08:06:51.494Z,29.33
2019-04-01T08:09:21.536Z,28.53
2019-04-01T08:11:51.543Z,31.03
2019-04-01T08:14:21.558Z,29.50
2019-04-01T08:16:51.575Z,29.10
2019-04-01T08:19:21.580Z,29.20
2019-04-01T08:21:52.422Z,30.02
2019-04-01T08:24:22.632Z,28.60
2019-04-01T08:26:52.676Z,29.98
2019-04-01T08:29:29.996Z,29.53
2019-04-01T08:31:54.526Z,29.52
2019-04-01T08:34:24.590Z,28.20
2019-04-01T08:36:54.645Z,28.43
2019-04-01T08:39:24.692Z,29.40
2019-04-01T08:41:55.028Z,29.00
2019-04-01T08:44:25.078Z,30.50
2019-04-01T08:46:55.240Z,30.23
2019-04-01T08:49:25.737Z,28.87
2019-04-01T08:51:55.915Z,28.97
2019-04-01T08:54:25.931Z,32.10
2019-04-01T08:56:56.033Z,29.63
2019-04-01T08:59:26.210Z,29.50
2019-04-01T09:01:56.284Z,29.20
2019-04-01T09:04:26.326Z,28.87
2019-04-01T09:06:56.387Z,33.07
2019-04-01T09:09:26.432Z,31.15
2019-04-01T09:11:56.966Z,30.17
2019-04-01T09:14:27.005Z,29.60
2019-04-01T09:16:58.099Z,30.00
2019-04-01T09:19:28.127Z,32.10
2019-04-01T09:21:58.174Z,30.40
2019-04-01T09:24:28.213Z,28.90
2019-04-01T09:26:58.257Z,31.20
2019-04-01T09:29:28.304Z,29.87
2019-04-01T09:31:58.321Z,29.20
2019-04-01T09:34:28.345Z,29.17
2019-04-01T09:36:58.414Z,29.40
2019-04-01T09:39:28.444Z,30.03
2019-04-01T09:41:58.675Z,30.20
2019-04-01T09:44:36.712Z,29.57
2019-04-01T09:47:00.439Z,28.80
2019-04-01T09:49:30.464Z,27.00
2019-04-01T09:52:03.712Z,28.73
2019-04-01T09:54:32.232Z,28.40
2019-04-01T09:57:16.249Z,28.57
2019-04-01T09:59:34.254Z,29.40
2019-04-01T10:02:04.285Z,29.20
2019-04-01T10:04:34.323Z,30.00
2019-04-01T10:07:04.385Z,29.43
2019-04-01T10:09:34.366Z,29.17
2019-04-01T10:12:04.437Z,31.60
2019-04-01T10:14:34.546Z,29.10
2019-04-01T10:17:04.599Z,30.27
2019-04-01T10:19:34.665Z,29.40
2019-04-01T10:22:04.779Z,29.67
2019-04-01T10:24:34.771Z,29.40
2019-04-01T10:27:04.866Z,31.47
2019-04-01T10:29:34.882Z,31.47
2019-04-01T10:32:05.032Z,28.87
2019-04-01T10:34:35.165Z,30.20
2019-04-01T10:37:05.200Z,30.00
2019-04-01T10:39:35.240Z,28.80
2019-04-01T10:42:05.563Z,30.43
2019-04-01T10:44:35.679Z,29.33
2019-04-01T10:47:06.034Z,27.87
2019-04-01T10:49:36.193Z,28.50
2019-04-01T10:52:06.296Z,30.10
2019-04-01T10:54:36.441Z,29.07
2019-04-01T10:57:06.482Z,30.70
2019-04-01T10:59:36.519Z,28.17
2019-04-01T11:02:06.573Z,30.33
2019-04-01T11:04:36.512Z,28.73
2019-04-01T11:07:06.705Z,29.60
2019-04-01T11:09:38.492Z,30.00
2019-04-01T11:12:08.600Z,29.00
2019-04-01T11:14:38.621Z,29.43
2019-04-01T11:17:08.632Z,28.53
2019-04-01T11:19:39.422Z,29.10
2019-04-01T11:22:09.689Z,28.37
2019-04-01T11:24:39.735Z,28.93
2019-04-01T11:27:09.748Z,29.80
2019-04-01T11:29:39.775Z,29.20
2019-04-01T11:32:13.186Z,28.40
2019-04-01T11:34:41.790Z,27.35
2019-04-01T11:37:11.883Z,28.57
2019-04-01T11:39:41.940Z,29.27
2019-04-01T11:42:12.048Z,27.40
2019-04-01T11:44:42.193Z,29.50
2019-04-01T11:47:12.304Z,27.63
2019-04-01T11:49:42.331Z,27.97
2019-04-01T11:52:15.390Z,27.80
2019-04-01T11:54:44.106Z,29.00
2019-04-01T11:57:14.125Z,26.67
2019-04-01T11:59:44.205Z,27.67
2019-04-01T12:02:14.242Z,28.23
2019-04-01T12:04:44.402Z,29.07
2019-04-01T12:07:14.472Z,28.50
2019-04-01T12:09:44.521Z,27.33
2019-04-01T12:12:23.598Z,28.87
2019-04-01T12:14:46.499Z,27.15
2019-04-01T12:17:16.491Z,28.20
2019-04-01T12:19:46.591Z,28.62
2019-04-01T12:22:19.744Z,26.68
2019-04-01T12:24:48.398Z,29.17
2019-04-01T12:27:18.536Z,28.30
2019-04-01T12:29:48.589Z,28.43
2019-04-01T12:32:18.842Z,28.70
2019-04-01T12:34:50.026Z,29.10
2019-04-01T12:37:20.095Z,27.83
2019-04-01T12:39:50.159Z,29.43
2019-04-01T12:42:20.203Z,26.77
2019-04-01T12:44:50.231Z,27.73
2019-04-01T12:47:20.232Z,28.27
2019-04-01T12:49:50.269Z,27.05
2019-04-01T12:52:20.483Z,26.73
2019-04-01T12:54:50.572Z,27.60
2019-04-01T12:57:21.050Z,27.77
2019-04-01T12:59:51.311Z,26.10
2019-04-01T13:02:21.381Z,26.17
2019-04-01T13:04:51.659Z,26.90
2019-04-01T13:07:21.721Z,26.25
2019-04-01T13:09:51.913Z,26.27
2019-04-01T13:12:22.028Z,27.87
2019-04-01T13:14:55.377Z,26.63
2019-04-01T13:17:23.795Z,25.83
2019-04-01T13:19:53.851Z,26.20
2019-04-01T13:22:23.861Z,25.90
2019-04-01T13:24:53.865Z,24.90
2019-04-01T13:27:24.006Z,27.90
2019-04-01T13:29:54.036Z,24.87
2019-04-01T13:32:24.121Z,24.93
2019-04-01T13:34:54.297Z,25.67
2019-04-01T13:37:24.364Z,25.70
2019-04-01T13:39:54.379Z,25.70
2019-04-01T13:42:25.062Z,24.60
2019-04-01T13:44:55.263Z,26.80
2019-04-01T13:47:25.281Z,24.63
2019-04-01T13:49:55.344Z,25.77
2019-04-01T13:52:25.408Z,28.98
2019-04-01T13:54:55.381Z,27.02
2019-04-01T13:57:26.131Z,26.03
2019-04-01T13:59:56.185Z,26.63
2019-04-01T14:02:27.855Z,26.40
2019-04-01T14:04:58.035Z,24.93
2019-04-01T14:07:28.146Z,24.83
2019-04-01T14:09:58.193Z,27.25
2019-04-01T14:12:28.312Z,27.53
2019-04-01T14:14:58.380Z,25.97
2019-04-01T14:17:28.903Z,26.57
2019-04-01T14:19:58.923Z,27.87
2019-04-01T14:22:28.977Z,24.53
2019-04-01T14:24:59.064Z,39.23
2019-04-01T14:27:29.079Z,30.17
2019-04-01T14:29:59.118Z,27.77
2019-04-01T14:32:29.186Z,27.00
2019-04-01T14:34:59.232Z,25.77
2019-04-01T14:37:30.175Z,27.70
2019-04-01T14:40:00.222Z,26.77
2019-04-01T14:42:30.299Z,26.10
2019-04-01T14:45:00.734Z,28.27
2019-04-01T14:47:30.876Z,29.00
2019-04-01T14:50:03.074Z,34.73
2019-04-01T14:52:34.397Z,30.10
2019-04-01T14:55:05.149Z,28.35
2019-04-01T14:57:35.221Z,26.73
2019-04-01T15:00:06.469Z,27.70
2019-04-01T15:02:36.545Z,44.20
2019-04-01T15:05:06.713Z,52.30
2019-04-01T15:07:36.755Z,40.60
2019-04-01T15:10:07.209Z,53.55
2019-04-01T15:12:37.276Z,47.47
2019-04-01T15:15:07.862Z,29.50
2019-04-01T15:17:37.968Z,28.90
2019-04-01T15:20:08.298Z,29.07
2019-04-01T15:22:38.375Z,29.30
2019-04-01T15:25:08.537Z,28.30
2019-04-01T15:27:38.552Z,28.73
2019-04-01T15:30:08.956Z,28.27
2019-04-01T15:32:39.010Z,29.37
2019-04-01T15:35:09.044Z,34.40
2019-04-01T15:37:39.103Z,42.05
2019-04-01T15:40:09.381Z,29.60
2019-04-01T15:42:40.161Z,28.77
2019-04-01T15:45:12.527Z,28.30
2019-04-01T15:47:45.341Z,28.57
2019-04-01T15:50:27.766Z,27.60
2019-04-01T15:52:47.758Z,27.93
2019-04-01T15:55:17.838Z,24.10
2019-04-01T15:57:47.938Z,24.70
2019-04-01T16:00:19.688Z,24.77
2019-04-01T16:02:49.917Z,22.80
2019-04-01T16:05:20.000Z,23.33
2019-04-01T16:07:50.081Z,22.60
2019-04-01T16:10:21.132Z,22.30
2019-04-01T16:12:51.580Z,21.23
2019-04-01T16:15:21.758Z,22.30
2019-04-01T16:17:53.858Z,19.23
2019-04-01T16:20:23.707Z,19.50
2019-04-01T16:22:53.830Z,20.80
2019-04-01T16:25:23.946Z,20.50
2019-04-01T16:27:54.057Z,20.17
2019-04-01T16:30:24.150Z,18.10
2019-04-01T16:32:54.296Z,20.62
2019-04-01T16:35:24.502Z,18.60
2019-04-01T16:37:54.668Z,18.73
2019-04-01T16:40:25.826Z,18.70
2019-04-01T16:42:56.015Z,18.00
2019-04-01T16:45:26.225Z,17.73
2019-04-01T16:47:56.325Z,17.70
2019-04-01T16:50:28.586Z,17.67
2019-04-01T16:52:58.604Z,17.20
2019-04-01T16:55:28.709Z,17.30
2019-04-01T16:57:58.872Z,17.30
2019-04-01T17:00:28.978Z,17.87
2019-04-01T17:02:59.095Z,15.65
2019-04-01T17:05:33.235Z,17.40
2019-04-01T17:08:03.407Z,16.90
2019-04-01T17:10:33.701Z,18.27
2019-04-01T17:13:03.894Z,17.73
2019-04-01T17:15:34.087Z,18.07
2019-04-01T17:18:04.220Z,16.00
2019-04-01T17:20:34.599Z,26.67
2019-04-01T17:23:04.794Z,16.70
2019-04-01T17:25:34.947Z,17.17
2019-04-01T17:28:05.133Z,17.03
2019-04-01T17:30:35.371Z,16.57
2019-04-01T17:33:08.342Z,17.00
2019-04-01T17:35:37.575Z,15.58
2019-04-01T17:38:07.691Z,15.53
2019-04-01T17:40:37.849Z,17.77
2019-04-01T17:43:09.405Z,16.52
2019-04-01T17:45:41.041Z,16.57
2019-04-01T17:48:11.590Z,16.60
2019-04-01T17:50:41.721Z,16.57
2019-04-01T17:53:12.668Z,15.47
2019-04-01T17:55:45.575Z,14.50
2019-04-01T17:58:15.542Z,14.70
2019-04-01T18:00:54.362Z,15.60
2019-04-01T18:03:24.451Z,15.27
2019-04-01T18:05:54.638Z,16.20
2019-04-01T18:08:24.933Z,15.30
2019-04-01T18:10:55.048Z,14.30
2019-04-01T18:13:25.204Z,16.47
2019-04-01T18:15:57.324Z,16.17
2019-04-01T18:18:27.663Z,15.78
2019-04-01T18:20:58.063Z,16.27
2019-04-01T18:23:28.150Z,16.47
2019-04-01T18:25:58.223Z,14.25
2019-04-01T18:28:28.491Z,14.67
2019-04-01T18:30:58.857Z,14.40
2019-04-01T18:33:30.061Z,14.13
2019-04-01T18:36:00.469Z,13.90
2019-04-01T18:38:30.703Z,14.30
2019-04-01T18:41:00.757Z,13.83
2019-04-01T18:43:30.975Z,13.47
2019-04-01T18:46:01.158Z,15.43
2019-04-01T18:48:31.398Z,14.10
2019-04-01T18:51:01.546Z,14.58
2019-04-01T18:53:31.623Z,13.60
2019-04-01T18:56:01.837Z,15.33
2019-04-01T18:58:32.060Z,16.30
2019-04-01T19:01:04.368Z,17.20
2019-04-01T19:03:34.157Z,15.90
2019-04-01T19:06:04.300Z,14.80
2019-04-01T19:08:34.426Z,17.30
2019-04-01T19:11:04.813Z,15.87
2019-04-01T19:13:34.981Z,15.38
2019-04-01T19:16:06.804Z,14.18
2019-04-01T19:18:39.556Z,13.17
2019-04-01T19:21:09.501Z,12.97
2019-04-01T19:23:39.636Z,14.60
2019-04-01T19:26:10.341Z,13.13
2019-04-01T19:28:40.547Z,13.03
2019-04-01T19:31:12.001Z,13.60
2019-04-01T19:33:42.445Z,12.53
2019-04-01T19:36:15.584Z,13.53
2019-04-01T19:38:45.920Z,14.03
2019-04-01T19:41:16.076Z,13.07
2019-04-01T19:43:51.002Z,14.30
2019-04-01T19:46:20.421Z,12.97
2019-04-01T19:48:50.584Z,13.10
2019-04-01T19:51:20.708Z,12.00
2019-04-01T19:53:50.876Z,13.43
2019-04-01T19:56:21.014Z,13.27
2019-04-01T19:58:51.250Z,12.97
2019-04-01T20:01:23.469Z,11.97
2019-04-01T20:03:54.060Z,12.60
2019-04-01T20:06:24.329Z,12.50
2019-04-01T20:08:54.491Z,12.50
2019-04-01T20:11:24.608Z,13.20
2019-04-01T20:13:55.061Z,12.83
2019-04-01T20:16:25.370Z,12.37
2019-04-01T20:18:55.587Z,12.73
2019-04-01T20:21:25.737Z,13.07
2019-04-01T20:23:55.856Z,12.60
2019-04-01T20:26:25.930Z,12.77
2019-04-01T20:28:56.048Z,12.37
2019-04-01T20:31:26.114Z,12.87
2019-04-01T20:33:56.236Z,12.80
2019-04-01T20:36:28.797Z,12.73
2019-04-01T20:38:58.100Z,12.40
2019-04-01T20:41:28.184Z,11.87
2019-04-01T20:43:58.304Z,12.70
2019-04-01T20:46:28.391Z,13.60
2019-04-01T20:48:58.561Z,13.13
2019-04-01T20:51:28.633Z,12.50
2019-04-01T20:53:58.685Z,12.90
2019-04-01T20:56:28.787Z,12.67
2019-04-01T20:58:58.844Z,12.93
2019-04-01T21:01:28.945Z,12.57
2019-04-01T21:03:59.201Z,12.80
2019-04-01T21:06:29.183Z,12.77
2019-04-01T21:08:59.223Z,13.30
2019-04-01T21:11:29.284Z,13.00
2019-04-01T21:13:59.315Z,13.50
2019-04-01T21:16:29.404Z,13.60
2019-04-01T21:18:59.481Z,13.70
2019-04-01T21:21:29.531Z,13.90
2019-04-01T21:23:59.883Z,13.00
2019-04-01T21:26:30.056Z,14.40
2019-04-01T21:29:00.113Z,13.40
2019-04-01T21:31:30.170Z,13.20
2019-04-01T21:34:00.255Z,13.40
2019-04-01T21:36:30.339Z,14.00
2019-04-01T21:39:01.244Z,14.23
2019-04-01T21:41:31.742Z,13.40
2019-04-01T21:44:01.857Z,13.50
2019-04-01T21:46:31.844Z,12.43
2019-04-01T21:49:01.972Z,12.90
2019-04-01T21:51:33.006Z,12.70
2019-04-01T21:54:03.233Z,12.70
2019-04-01T21:56:33.269Z,13.00
2019-04-01T21:59:03.338Z,12.87
2019-04-01T22:01:33.639Z,12.53
2019-04-01T22:04:03.715Z,12.80
2019-04-01T22:06:33.755Z,13.57
2019-04-01T22:09:07.060Z,13.00
2019-04-01T22:11:37.134Z,13.97
2019-04-01T22:14:07.232Z,13.33
2019-04-01T22:16:37.250Z,12.93
2019-04-01T22:19:07.341Z,13.50
2019-04-01T22:21:37.389Z,14.58
2019-04-01T22:24:07.426Z,13.90
2019-04-01T22:26:37.502Z,13.03
2019-04-01T22:29:07.543Z,14.40
2019-04-01T22:31:37.585Z,13.27
2019-04-01T22:34:08.279Z,13.63
2019-04-01T22:36:40.083Z,13.45
2019-04-01T22:39:10.409Z,13.70
2019-04-01T22:41:41.681Z,13.33
2019-04-01T22:44:11.851Z,12.35
2019-04-01T22:46:41.848Z,13.47
2019-04-01T22:49:12.624Z,13.97
2019-04-01T22:51:42.681Z,13.70
2019-04-01T22:54:12.767Z,13.20
2019-04-01T22:56:42.822Z,13.40
2019-04-01T22:59:13.194Z,14.50
2019-04-01T23:01:44.157Z,13.60
2019-04-01T23:04:15.156Z,13.33
2019-04-01T23:06:45.195Z,11.90
2019-04-01T23:09:15.313Z,13.68
2019-04-01T23:11:45.354Z,12.73
2019-04-01T23:14:17.092Z,13.87
2019-04-01T23:16:47.442Z,13.47
2019-04-01T23:19:17.516Z,13.70
2019-04-01T23:21:47.572Z,12.50
2019-04-01T23:24:17.631Z,13.20
2019-04-01T23:26:47.684Z,12.63
2019-04-01T23:29:17.727Z,13.43
2019-04-01T23:31:47.728Z,12.90
2019-04-01T23:34:17.770Z,13.43
2019-04-01T23:36:47.840Z,13.67
2019-04-01T23:39:17.855Z,12.90
2019-04-01T23:41:47.888Z,13.10
2019-04-01T23:44:17.930Z,12.40
2019-04-01T23:46:48.082Z,12.98
2019-04-01T23:49:18.509Z,12.73
2019-04-01T23:51:48.548Z,12.03
2019-04-01T23:54:18.593Z,13.80
2019-04-01T23:56:48.644Z,13.10
2019-04-01T23:59:19.216Z,13.48
